Time;durP1;ratioP1;P1;durP2;ratioP2;P2;SDS_P1;SDS_P2;PMS_P1;PMS_P2;Temp;Humidity;BMP_temperature;BMP_pressure;BME280_temperature;BME280_humidity;BME280_pressure;Samples;Min_cycle;Max_cycle;Signal;HPM_P1;HPM_P2
2023/05/02 00:01:25;;;;;;;10.70;5.32;;;;;;;;;;5016121;28;20640;-63
2023/05/02 00:03:50;;;;;;;11.18;5.80;;;;;;;;;;5011873;28;20076;-64
2023/05/02 00:06:15;;;;;;;13.23;5.18;;;;;;;;;;5036837;23;20041;-68
2023/05/02 00:08:41;;;;;;;11.82;5.80;;;;;;;;;;5021029;28;20041;-70
2023/05/02 00:11:06;;;;;;;9.60;5.57;;;;;;;;;;5024185;28;20110;-68
2023/05/02 00:13:31;;;;;;;9.45;5.30;;;;;;;;;;5029408;28;20022;-69
2023/05/02 00:15:56;;;;;;;9.68;5.40;;;;;;;;;;5029158;28;20025;-69
2023/05/02 00:18:23;;;;;;;16.27;5.80;;;;;;;;;;5029848;28;20030;-69
2023/05/02 00:20:48;;;;;;;13.65;6.05;;;;;;;;;;5029610;28;20126;-68
2023/05/02 00:23:14;;;;;;;11.23;5.13;;;;;;;;;;5029247;28;20478;-67
2023/05/02 00:25:45;;;;;;;12.80;5.68;;;;;;;;;;5029135;28;20119;-67
2023/05/02 00:28:10;;;;;;;7.45;4.85;;;;;;;;;;5029435;28;20025;-68
2023/05/02 00:30:36;;;;;;;11.35;5.18;;;;;;;;;;5033151;28;20578;-69
2023/05/02 00:33:01;;;;;;;12.73;5.75;;;;;;;;;;5032937;28;20025;-68
2023/05/02 00:35:26;;;;;;;12.20;5.32;;;;;;;;;;5032962;28;20032;-69
2023/05/02 00:37:51;;;;;;;9.60;5.28;;;;;;;;;;5033489;28;20028;-68
2023/05/02 00:40:17;;;;;;;12.85;6.07;;;;;;;;;;5048967;28;20551;-68
2023/05/02 00:42:42;;;;;;;11.23;5.22;;;;;;;;;;5033282;28;20022;-68
2023/05/02 00:45:07;;;;;;;10.52;5.50;;;;;;;;;;5033061;28;20328;-68
2023/05/02 00:47:33;;;;;;;9.60;5.38;;;;;;;;;;5031111;28;20017;-67
2023/05/02 00:49:59;;;;;;;12.43;5.28;;;;;;;;;;5033135;28;20032;-69
2023/05/02 00:52:25;;;;;;;8.05;5.03;;;;;;;;;;5015230;28;20017;-67
2023/05/02 00:54:50;;;;;;;9.00;5.20;;;;;;;;;;5029354;28;20489;-68
2023/05/02 00:57:15;;;;;;;10.20;5.70;;;;;;;;;;5033329;28;20074;-69
2023/05/02 00:59:40;;;;;;;13.48;4.75;;;;;;;;;;5031418;28;20033;-69
2023/05/02 01:02:09;;;;;;;12.95;5.43;;;;;;;;;;5032843;28;20526;-68
2023/05/02 01:04:37;;;;;;;11.85;5.28;;;;;;;;;;5032212;28;20028;-68
2023/05/02 01:07:17;;;;;;;10.70;5.03;;;;;;;;;;5032784;28;20116;-67
2023/05/02 01:09:49;;;;;;;15.52;5.13;;;;;;;;;;5023674;28;20021;-68
2023/05/02 01:12:19;;;;;;;10.00;5.60;;;;;;;;;;5033108;28;20033;-68
2023/05/02 01:14:49;;;;;;;8.73;4.93;;;;;;;;;;5020298;28;20036;-68
2023/05/02 01:17:15;;;;;;;8.43;4.65;;;;;;;;;;5032683;28;20032;-68
2023/05/02 01:19:43;;;;;;;8.93;4.78;;;;;;;;;;5031391;28;20074;-69
2023/05/02 01:22:10;;;;;;;13.63;5.27;;;;;;;;;;5032782;28;20084;-69
2023/05/02 01:24:41;;;;;;;9.77;5.25;;;;;;;;;;5032817;28;20673;-69
2023/05/02 01:27:10;;;;;;;11.25;5.68;;;;;;;;;;5031371;28;20604;-67
2023/05/02 01:29:36;;;;;;;8.63;4.97;;;;;;;;;;5032576;28;20032;-69
2023/05/02 01:32:01;;;;;;;16.63;6.15;;;;;;;;;;5032141;28;20045;-69
2023/05/02 01:34:27;;;;;;;15.10;5.85;;;;;;;;;;5031885;28;20025;-66
2023/05/02 01:36:53;;;;;;;15.90;5.95;;;;;;;;;;5032217;28;20036;-68
2023/05/02 01:39:23;;;;;;;11.50;5.55;;;;;;;;;;5032145;28;20024;-69
2023/05/02 01:41:50;;;;;;;11.90;5.35;;;;;;;;;;5031488;28;20100;-68
2023/05/02 01:44:17;;;;;;;10.30;5.45;;;;;;;;;;5032141;28;20025;-69
2023/05/02 01:46:43;;;;;;;11.77;5.65;;;;;;;;;;5031811;28;20018;-69
2023/05/02 01:49:09;;;;;;;8.40;5.55;;;;;;;;;;5031808;28;20018;-69
2023/05/02 01:51:35;;;;;;;8.25;4.93;;;;;;;;;;5020791;28;20071;-69
2023/05/02 01:54:03;;;;;;;13.00;5.10;;;;;;;;;;5021853;28;20014;-68
2023/05/02 01:56:30;;;;;;;10.02;4.80;;;;;;;;;;5031186;28;20053;-66
2023/05/02 01:58:56;;;;;;;10.57;5.38;;;;;;;;;;5024483;28;20449;-66
2023/05/02 02:01:23;;;;;;;11.57;5.25;;;;;;;;;;5031513;28;20093;-69
2023/05/02 02:03:49;;;;;;;8.10;4.68;;;;;;;;;;5031282;28;20629;-68
2023/05/02 02:06:14;;;;;;;8.38;5.25;;;;;;;;;;5031746;28;20040;-67
2023/05/02 02:08:40;;;;;;;10.50;4.53;;;;;;;;;;5024183;28;20517;-69
2023/05/02 02:11:08;;;;;;;9.93;4.70;;;;;;;;;;5028883;28;20021;-69
2023/05/02 02:13:35;;;;;;;10.40;4.60;;;;;;;;;;5031679;28;20029;-69
2023/05/02 02:16:02;;;;;;;10.15;5.20;;;;;;;;;;5030976;28;20076;-68
2023/05/02 02:18:28;;;;;;;11.05;5.22;;;;;;;;;;5031461;28;20040;-68
2023/05/02 02:20:54;;;;;;;9.23;4.80;;;;;;;;;;5030131;28;20052;-69
2023/05/02 02:23:20;;;;;;;9.88;4.90;;;;;;;;;;5030134;28;20025;-69
2023/05/02 02:25:45;;;;;;;15.98;6.95;;;;;;;;;;5031413;28;20021;-67
2023/05/02 02:28:11;;;;;;;11.13;5.07;;;;;;;;;;5031824;28;20143;-69
2023/05/02 02:30:36;;;;;;;10.23;5.03;;;;;;;;;;5031597;28;20029;-69
2023/05/02 02:33:01;;;;;;;8.23;4.68;;;;;;;;;;5030704;28;20029;-69
2023/05/02 02:35:30;;;;;;;11.10;4.38;;;;;;;;;;5030754;28;20021;-70
2023/05/02 02:38:06;;;;;;;9.23;5.45;;;;;;;;;;5031589;28;20017;-68
2023/05/02 02:40:36;;;;;;;9.10;4.30;;;;;;;;;;5030991;28;20028;-70
2023/05/02 02:43:02;;;;;;;7.50;4.35;;;;;;;;;;5031270;28;20410;-69
2023/05/02 02:45:30;;;;;;;8.93;4.70;;;;;;;;;;5030782;28;20024;-67
2023/05/02 02:48:07;;;;;;;10.07;4.55;;;;;;;;;;5031161;28;20273;-69
2023/05/02 02:50:51;;;;;;;8.68;4.72;;;;;;;;;;5026323;28;20034;-68
2023/05/02 02:53:18;;;;;;;10.18;4.95;;;;;;;;;;5016772;28;20072;-68
2023/05/02 02:55:43;;;;;;;10.70;4.47;;;;;;;;;;5030229;28;20029;-69
2023/05/02 02:58:20;;;;;;;10.75;5.78;;;;;;;;;;5022216;28;20378;-69
2023/05/02 03:00:46;;;;;;;8.15;3.92;;;;;;;;;;5030811;28;20028;-67
2023/05/02 03:03:13;;;;;;;10.68;4.68;;;;;;;;;;5030469;28;20021;-68
2023/05/02 03:05:38;;;;;;;14.60;4.47;;;;;;;;;;5028974;28;20033;-70
2023/05/02 03:08:04;;;;;;;8.77;4.32;;;;;;;;;;5027168;28;20101;-69
2023/05/02 03:10:29;;;;;;;9.20;4.47;;;;;;;;;;5030476;28;20651;-70
2023/05/02 03:12:54;;;;;;;14.88;5.03;;;;;;;;;;5030740;28;20049;-70
2023/05/02 03:15:31;;;;;;;10.77;4.97;;;;;;;;;;5030264;28;20033;-68
2023/05/02 03:17:57;;;;;;;9.45;4.68;;;;;;;;;;5030114;28;20083;-68
2023/05/02 03:20:22;;;;;;;12.95;4.47;;;;;;;;;;5030176;28;20017;-68
2023/05/02 03:22:47;;;;;;;12.55;5.18;;;;;;;;;;5030034;28;20031;-68
2023/05/02 03:25:12;;;;;;;15.52;4.72;;;;;;;;;;5030055;28;20018;-69
2023/05/02 03:27:38;;;;;;;7.30;3.88;;;;;;;;;;5028945;28;20108;-69
2023/05/02 03:30:03;;;;;;;12.40;5.18;;;;;;;;;;5030483;28;20068;-70
2023/05/02 03:32:28;;;;;;;10.27;4.05;;;;;;;;;;5029860;28;20175;-69
2023/05/02 03:34:57;;;;;;;7.88;4.55;;;;;;;;;;5029992;28;20026;-69
2023/05/02 03:37:22;;;;;;;6.97;4.32;;;;;;;;;;5030191;28;20010;-68
2023/05/02 03:39:48;;;;;;;9.48;4.40;;;;;;;;;;5029844;28;20368;-69
2023/05/02 03:42:13;;;;;;;10.25;4.43;;;;;;;;;;5030347;28;20040;-69
2023/05/02 03:44:38;;;;;;;9.27;4.38;;;;;;;;;;5029888;28;20554;-69
2023/05/02 03:47:03;;;;;;;7.72;4.20;;;;;;;;;;5029406;28;20503;-71
2023/05/02 03:49:28;;;;;;;11.20;4.80;;;;;;;;;;5029784;28;20029;-69
2023/05/02 03:51:54;;;;;;;6.97;4.05;;;;;;;;;;5015828;28;20018;-69
2023/05/02 03:54:19;;;;;;;8.55;4.57;;;;;;;;;;5021670;28;20025;-69
2023/05/02 03:56:47;;;;;;;9.23;4.18;;;;;;;;;;5025584;28;20087;-71
2023/05/02 03:59:13;;;;;;;8.30;4.00;;;;;;;;;;5024787;28;20017;-70
2023/05/02 04:01:38;;;;;;;8.25;4.40;;;;;;;;;;5029180;28;20066;-69
2023/05/02 04:04:04;;;;;;;9.65;3.78;;;;;;;;;;5029071;28;20022;-68
2023/05/02 04:06:30;;;;;;;8.68;3.92;;;;;;;;;;5029555;28;20124;-69
2023/05/02 04:08:57;;;;;;;9.88;4.20;;;;;;;;;;5029738;28;20056;-69
2023/05/02 04:11:22;;;;;;;6.68;3.92;;;;;;;;;;5030236;28;20071;-69
2023/05/02 04:13:47;;;;;;;9.73;4.10;;;;;;;;;;5029589;28;20466;-69
2023/05/02 04:16:13;;;;;;;7.82;3.60;;;;;;;;;;5028876;28;20026;-67
2023/05/02 04:18:38;;;;;;;6.68;3.60;;;;;;;;;;5029209;28;20021;-69
2023/05/02 04:21:03;;;;;;;8.75;4.90;;;;;;;;;;5029304;28;20017;-68
2023/05/02 04:23:28;;;;;;;9.82;4.15;;;;;;;;;;5029362;28;20021;-67
2023/05/02 04:25:55;;;;;;;7.70;4.07;;;;;;;;;;5029440;28;20018;-69
2023/05/02 04:28:21;;;;;;;10.07;3.90;;;;;;;;;;5029429;28;20501;-67
2023/05/02 04:30:46;;;;;;;12.57;3.40;;;;;;;;;;5029293;28;20026;-68
2023/05/02 04:33:12;;;;;;;8.10;3.75;;;;;;;;;;5029242;28;20025;-69
2023/05/02 04:35:40;;;;;;;9.95;3.45;;;;;;;;;;5029132;28;20028;-68
2023/05/02 04:38:05;;;;;;;9.43;3.38;;;;;;;;;;5029359;28;20024;-68
2023/05/02 04:40:31;;;;;;;9.68;3.78;;;;;;;;;;5029650;28;20013;-67
2023/05/02 04:42:56;;;;;;;9.18;3.45;;;;;;;;;;5030012;28;20523;-68
2023/05/02 04:45:22;;;;;;;9.95;3.55;;;;;;;;;;5028671;28;20017;-68
2023/05/02 04:47:47;;;;;;;8.48;3.95;;;;;;;;;;5028774;28;20026;-68
2023/05/02 04:50:12;;;;;;;7.90;3.60;;;;;;;;;;5027202;28;20118;-69
2023/05/02 04:52:37;;;;;;;7.53;3.63;;;;;;;;;;5010958;28;20391;-69
2023/05/02 04:55:03;;;;;;;8.43;3.53;;;;;;;;;;5027275;28;20097;-69
2023/05/02 04:57:28;;;;;;;9.05;3.72;;;;;;;;;;5021024;28;20526;-68
2023/05/02 04:59:53;;;;;;;8.43;3.88;;;;;;;;;;5026751;28;20529;-68
2023/05/02 05:02:19;;;;;;;16.55;3.97;;;;;;;;;;5022998;28;20082;-68
2023/05/02 05:04:44;;;;;;;7.47;3.22;;;;;;;;;;5028568;28;20013;-69
2023/05/02 05:07:10;;;;;;;5.45;3.00;;;;;;;;;;5028767;28;20036;-70
2023/05/02 05:09:35;;;;;;;10.63;3.45;;;;;;;;;;5019659;28;20033;-69
2023/05/02 05:12:00;;;;;;;5.75;3.20;;;;;;;;;;5029022;28;20101;-68
2023/05/02 05:14:26;;;;;;;8.93;3.78;;;;;;;;;;5023677;28;20017;-69
2023/05/02 05:16:51;;;;;;;7.65;3.75;;;;;;;;;;5031227;28;20021;-68
2023/05/02 05:19:16;;;;;;;6.03;2.85;;;;;;;;;;5029938;28;20388;-69
2023/05/02 05:21:41;;;;;;;6.93;3.40;;;;;;;;;;5032229;28;20482;-70
2023/05/02 05:24:07;;;;;;;7.65;3.08;;;;;;;;;;5032602;28;20080;-69
2023/05/02 05:26:33;;;;;;;4.95;2.95;;;;;;;;;;5031612;28;20025;-69
2023/05/02 05:28:58;;;;;;;6.45;3.20;;;;;;;;;;5031140;28;20500;-66
2023/05/02 05:31:24;;;;;;;7.07;3.67;;;;;;;;;;5032039;28;20022;-68
2023/05/02 05:33:49;;;;;;;8.02;3.50;;;;;;;;;;5031440;28;20032;-69
2023/05/02 05:36:14;;;;;;;5.45;3.20;;;;;;;;;;5031459;28;20099;-68
2023/05/02 05:38:39;;;;;;;9.32;3.42;;;;;;;;;;5028501;28;20033;-69
2023/05/02 05:41:06;;;;;;;7.88;3.53;;;;;;;;;;5031763;28;20055;-66
2023/05/02 05:43:32;;;;;;;9.05;3.63;;;;;;;;;;5022803;28;20548;-68
2023/05/02 05:45:57;;;;;;;8.38;3.65;;;;;;;;;;5028731;28;20033;-67
2023/05/02 05:48:22;;;;;;;7.28;3.35;;;;;;;;;;5032513;28;20032;-67
2023/05/02 05:50:48;;;;;;;6.55;3.47;;;;;;;;;;5028635;28;20048;-70
2023/05/02 05:53:13;;;;;;;7.85;3.70;;;;;;;;;;5031583;28;20616;-66
2023/05/02 05:55:39;;;;;;;7.32;3.50;;;;;;;;;;5031196;28;20038;-68
2023/05/02 05:58:04;;;;;;;12.98;4.00;;;;;;;;;;5024856;28;20017;-68
2023/05/02 06:00:29;;;;;;;5.28;2.90;;;;;;;;;;5027282;28;20184;-67
2023/05/02 06:02:55;;;;;;;11.57;3.05;;;;;;;;;;5031843;28;20111;-67
2023/05/02 06:05:20;;;;;;;11.93;3.40;;;;;;;;;;5050841;22;20050;-63
2023/05/02 06:07:45;;;;;;;10.27;3.35;;;;;;;;;;5031971;28;20376;-62
2023/05/02 06:10:11;;;;;;;14.60;3.75;;;;;;;;;;5028728;28;20017;-64
2023/05/02 06:12:36;;;;;;;8.85;3.13;;;;;;;;;;5032358;28;20021;-63
2023/05/02 06:15:01;;;;;;;12.55;3.63;;;;;;;;;;5031614;28;20161;-64
2023/05/02 06:17:26;;;;;;;6.72;3.50;;;;;;;;;;5032161;28;20100;-63
2023/05/02 06:19:52;;;;;;;6.63;3.05;;;;;;;;;;5032305;28;20017;-66
2023/05/02 06:22:17;;;;;;;9.70;2.85;;;;;;;;;;5032306;28;20021;-59
2023/05/02 06:24:42;;;;;;;9.68;3.60;;;;;;;;;;5030012;28;20072;-64
2023/05/02 06:27:07;;;;;;;6.03;2.95;;;;;;;;;;5020411;28;20119;-64
2023/05/02 06:29:33;;;;;;;9.63;3.55;;;;;;;;;;5024395;28;20033;-65
2023/05/02 06:31:58;;;;;;;7.05;2.78;;;;;;;;;;5032801;28;20033;-64
2023/05/02 06:34:23;;;;;;;7.82;3.25;;;;;;;;;;5031155;28;20018;-64
2023/05/02 06:36:52;;;;;;;5.50;3.13;;;;;;;;;;5031476;28;20394;-64
2023/05/02 06:39:18;;;;;;;10.63;3.65;;;;;;;;;;5031791;28;20449;-63
2023/05/02 06:41:43;;;;;;;7.43;3.40;;;;;;;;;;5032444;28;20041;-64
2023/05/02 06:44:08;;;;;;;6.82;3.67;;;;;;;;;;5031974;28;20032;-64
2023/05/02 06:46:33;;;;;;;11.63;3.40;;;;;;;;;;5031226;28;20028;-64
2023/05/02 06:48:58;;;;;;;7.57;3.65;;;;;;;;;;5031360;28;20025;-64
2023/05/02 06:51:24;;;;;;;7.78;3.92;;;;;;;;;;5030426;28;20069;-58
2023/05/02 06:53:49;;;;;;;8.82;3.63;;;;;;;;;;5031035;28;20048;-64
2023/05/02 06:56:14;;;;;;;9.85;3.67;;;;;;;;;;5031379;28;20032;-63
2023/05/02 06:58:39;;;;;;;9.60;4.65;;;;;;;;;;5022244;28;20013;-64
2023/05/02 07:01:05;;;;;;;13.77;4.18;;;;;;;;;;5021257;28;20494;-64
2023/05/02 07:03:30;;;;;;;9.77;3.38;;;;;;;;;;5030343;28;20475;-63
2023/05/02 07:05:56;;;;;;;9.23;3.95;;;;;;;;;;5030425;28;20029;-62
2023/05/02 07:08:22;;;;;;;10.85;4.38;;;;;;;;;;5030675;28;20043;-62
2023/05/02 07:10:48;;;;;;;19.27;4.43;;;;;;;;;;5031021;28;20021;-64
2023/05/02 07:13:13;;;;;;;11.27;4.18;;;;;;;;;;5031040;28;20013;-61
2023/05/02 07:15:38;;;;;;;9.68;3.65;;;;;;;;;;5030625;28;20502;-64
2023/05/02 07:18:03;;;;;;;8.90;3.90;;;;;;;;;;5031571;28;20013;-63
2023/05/02 07:20:29;;;;;;;12.93;4.15;;;;;;;;;;5030701;28;20032;-64
2023/05/02 07:22:54;;;;;;;16.55;4.55;;;;;;;;;;5030618;28;20032;-65
2023/05/02 07:25:19;;;;;;;12.18;4.35;;;;;;;;;;5030771;28;20021;-64
2023/05/02 07:27:44;;;;;;;13.00;4.65;;;;;;;;;;5019394;28;20061;-59
2023/05/02 07:30:10;;;;;;;8.35;4.82;;;;;;;;;;5030368;28;20025;-64
2023/05/02 07:32:35;;;;;;;11.02;4.45;;;;;;;;;;5045753;28;20079;-65
2023/05/02 07:35:00;;;;;;;12.40;5.13;;;;;;;;;;5030177;28;20032;-65
2023/05/02 07:37:26;;;;;;;16.23;5.85;;;;;;;;;;5030423;28;20018;-64
2023/05/02 07:39:51;;;;;;;13.20;6.82;;;;;;;;;;5030369;28;20017;-62
2023/05/02 07:42:16;;;;;;;11.43;6.18;;;;;;;;;;5029178;28;20024;-65
2023/05/02 07:44:42;;;;;;;12.82;6.50;;;;;;;;;;5029038;28;20466;-63
2023/05/02 07:47:07;;;;;;;17.27;7.03;;;;;;;;;;5030266;28;20047;-65
2023/05/02 07:49:33;;;;;;;15.85;7.75;;;;;;;;;;5030287;28;20017;-63
2023/05/02 07:51:58;;;;;;;20.63;8.68;;;;;;;;;;5030305;28;20079;-63
2023/05/02 07:54:25;;;;;;;21.27;7.72;;;;;;;;;;5030470;28;20459;-61
2023/05/02 07:56:50;;;;;;;28.40;8.65;;;;;;;;;;5014116;28;20097;-63
2023/05/02 07:59:15;;;;;;;22.67;9.25;;;;;;;;;;5017536;28;20053;-64
2023/05/02 08:01:41;;;;;;;21.02;8.77;;;;;;;;;;5031148;28;20025;-59
2023/05/02 08:04:10;;;;;;;19.23;10.00;;;;;;;;;;5030719;28;20141;-65
2023/05/02 08:06:35;;;;;;;23.75;10.65;;;;;;;;;;5017722;28;20025;-63
2023/05/02 08:09:01;;;;;;;19.77;9.20;;;;;;;;;;5022340;28;20093;-59
2023/05/02 08:11:26;;;;;;;23.17;11.45;;;;;;;;;;5031405;28;20101;-63
2023/05/02 08:13:51;;;;;;;23.45;11.90;;;;;;;;;;5030087;28;20014;-63
2023/05/02 08:16:17;;;;;;;24.27;12.98;;;;;;;;;;5030343;28;20049;-64
2023/05/02 08:18:42;;;;;;;24.33;13.00;;;;;;;;;;5029942;28;20109;-61
2023/05/02 08:21:08;;;;;;;25.75;14.10;;;;;;;;;;5029858;28;20049;-65
2023/05/02 08:23:33;;;;;;;22.10;12.38;;;;;;;;;;5030385;28;20017;-63
2023/05/02 08:25:58;;;;;;;29.85;12.63;;;;;;;;;;5026497;28;20026;-65
2023/05/02 08:28:23;;;;;;;29.17;13.68;;;;;;;;;;5023580;28;20028;-64
2023/05/02 08:30:50;;;;;;;23.73;12.68;;;;;;;;;;5029550;28;20029;-65
2023/05/02 08:33:15;;;;;;;20.55;11.75;;;;;;;;;;5030755;28;20021;-64
2023/05/02 08:35:41;;;;;;;26.45;13.30;;;;;;;;;;5029987;28;20471;-65
2023/05/02 08:38:06;;;;;;;30.33;13.75;;;;;;;;;;5029230;28;20022;-64
2023/05/02 08:40:34;;;;;;;24.35;13.70;;;;;;;;;;5030396;28;20016;-60
2023/05/02 08:43:00;;;;;;;33.63;14.60;;;;;;;;;;5030256;28;20053;-60
2023/05/02 08:45:25;;;;;;;26.48;13.75;;;;;;;;;;5028923;28;20290;-64
2023/05/02 08:47:51;;;;;;;27.02;14.90;;;;;;;;;;5030029;28;20083;-63
2023/05/02 08:50:17;;;;;;;26.75;14.20;;;;;;;;;;5031524;28;20045;-64
2023/05/02 08:52:44;;;;;;;26.80;13.23;;;;;;;;;;5030942;28;20029;-64
2023/05/02 08:55:10;;;;;;;24.35;12.57;;;;;;;;;;5028712;28;20103;-63
2023/05/02 08:57:36;;;;;;;22.90;13.40;;;;;;;;;;5025326;28;20072;-65
2023/05/02 09:00:01;;;;;;;24.73;12.85;;;;;;;;;;5026583;28;20021;-61
2023/05/02 09:02:33;;;;;;;24.23;13.63;;;;;;;;;;5033377;28;20048;-64
2023/05/02 09:05:00;;;;;;;27.05;14.60;;;;;;;;;;5032909;28;20483;-64
2023/05/02 09:07:25;;;;;;;24.02;13.85;;;;;;;;;;5031819;28;20033;-64
2023/05/02 09:09:51;;;;;;;21.80;13.25;;;;;;;;;;5024362;28;20028;-62
2023/05/02 09:12:16;;;;;;;29.05;13.20;;;;;;;;;;5033595;28;20029;-64
2023/05/02 09:14:42;;;;;;;23.77;11.82;;;;;;;;;;5031309;28;20029;-64
2023/05/02 09:17:07;;;;;;;25.05;13.05;;;;;;;;;;5032675;28;20382;-64
2023/05/02 09:19:33;;;;;;;25.17;12.88;;;;;;;;;;5033137;28;20022;-63
2023/05/02 09:22:00;;;;;;;26.35;14.27;;;;;;;;;;5032402;28;20021;-63
2023/05/02 09:24:25;;;;;;;23.13;12.68;;;;;;;;;;5032943;28;20075;-64
2023/05/02 09:26:58;;;;;;;26.10;13.38;;;;;;;;;;5020569;28;20101;-60
2023/05/02 09:29:23;;;;;;;26.38;14.50;;;;;;;;;;5032906;28;20612;-61
2023/05/02 09:31:48;;;;;;;25.02;13.85;;;;;;;;;;5032628;28;20026;-64
2023/05/02 09:34:17;;;;;;;23.65;13.77;;;;;;;;;;5030731;28;20017;-64
2023/05/02 09:36:42;;;;;;;28.25;15.02;;;;;;;;;;5030387;28;20021;-63
2023/05/02 09:39:10;;;;;;;25.92;13.05;;;;;;;;;;5032219;28;20028;-64
2023/05/02 09:41:38;;;;;;;27.73;14.38;;;;;;;;;;5021775;28;20024;-65
2023/05/02 09:44:08;;;;;;;26.77;13.93;;;;;;;;;;5031908;28;20013;-62
2023/05/02 09:46:38;;;;;;;27.88;12.35;;;;;;;;;;5031991;28;20108;-61
2023/05/02 09:49:03;;;;;;;20.25;12.63;;;;;;;;;;5031778;28;20124;-65
2023/05/02 09:51:28;;;;;;;26.15;12.32;;;;;;;;;;5031140;28;20510;-62
2023/05/02 09:53:54;;;;;;;25.50;13.10;;;;;;;;;;5031726;28;20083;-61
2023/05/02 09:56:19;;;;;;;25.98;12.27;;;;;;;;;;5026612;28;20038;-65
2023/05/02 09:58:45;;;;;;;21.77;11.75;;;;;;;;;;5020715;28;20026;-63
2023/05/02 10:01:17;;;;;;;29.27;11.52;;;;;;;;;;5026106;28;20100;-63
2023/05/02 10:03:45;;;;;;;24.25;12.05;;;;;;;;;;5026141;28;20361;-61
2023/05/02 10:06:11;;;;;;;25.77;11.30;;;;;;;;;;5028029;28;20110;-65
2023/05/02 10:08:37;;;;;;;23.67;11.30;;;;;;;;;;5025862;28;20053;-64
2023/05/02 10:11:06;;;;;;;19.15;10.45;;;;;;;;;;5031264;28;20026;-61
2023/05/02 10:13:33;;;;;;;20.05;9.98;;;;;;;;;;5030183;28;20655;-62
2023/05/02 10:16:00;;;;;;;18.92;10.23;;;;;;;;;;5025826;28;20100;-60
2023/05/02 10:18:27;;;;;;;19.90;10.38;;;;;;;;;;5018502;28;20021;-63
2023/05/02 10:21:04;;;;;;;16.95;9.43;;;;;;;;;;5029724;28;20026;-63
2023/05/02 10:23:30;;;;;;;30.70;10.18;;;;;;;;;;5030877;28;20029;-63
2023/05/02 10:25:58;;;;;;;16.38;8.25;;;;;;;;;;5031464;28;20066;-61
2023/05/02 10:28:24;;;;;;;17.60;9.30;;;;;;;;;;5031802;28;20033;-65
2023/05/02 10:30:50;;;;;;;17.80;8.98;;;;;;;;;;5031345;28;20474;-65
2023/05/02 10:33:15;;;;;;;19.80;8.85;;;;;;;;;;5031625;28;20100;-63
2023/05/02 10:35:47;;;;;;;16.33;8.68;;;;;;;;;;5031714;28;20502;-65
2023/05/02 10:38:18;;;;;;;15.63;8.88;;;;;;;;;;5031628;28;20032;-65
2023/05/02 10:40:46;;;;;;;17.33;9.15;;;;;;;;;;5031239;28;20048;-64
2023/05/02 10:43:13;;;;;;;16.98;8.30;;;;;;;;;;5031731;28;20009;-65
2023/05/02 10:45:38;;;;;;;14.65;8.20;;;;;;;;;;5031294;28;20053;-62
2023/05/02 10:48:13;;;;;;;16.27;7.75;;;;;;;;;;5023491;28;20073;-63
2023/05/02 10:50:46;;;;;;;16.98;8.25;;;;;;;;;;5031155;28;20483;-64
2023/05/02 10:53:21;;;;;;;15.30;8.02;;;;;;;;;;5024777;28;20514;-67
2023/05/02 10:56:06;;;;;;;13.85;7.85;;;;;;;;;;5028298;28;20022;-65
2023/05/02 10:58:31;;;;;;;17.20;7.45;;;;;;;;;;5027835;28;20024;-65
2023/05/02 11:01:16;;;;;;;16.02;8.68;;;;;;;;;;5027107;28;20017;-64
2023/05/02 11:03:56;;;;;;;19.92;7.95;;;;;;;;;;5029587;28;20029;-63
2023/05/02 11:06:21;;;;;;;16.88;7.57;;;;;;;;;;5029867;28;20025;-64
2023/05/02 11:08:46;;;;;;;13.55;7.43;;;;;;;;;;5024181;28;20373;-61
2023/05/02 11:11:30;;;;;;;11.90;6.82;;;;;;;;;;5029525;28;20028;-64
2023/05/02 11:13:55;;;;;;;13.30;7.10;;;;;;;;;;5029998;28;20053;-63
2023/05/02 11:16:21;;;;;;;15.52;6.80;;;;;;;;;;5029052;28;20435;-61
2023/05/02 11:18:59;;;;;;;12.07;6.50;;;;;;;;;;5017784;28;20014;-65
2023/05/02 11:21:27;;;;;;;12.77;6.82;;;;;;;;;;5031537;28;20056;-65
2023/05/02 11:24:13;;;;;;;16.03;7.03;;;;;;;;;;5030251;28;20029;-60
2023/05/02 11:26:38;;;;;;;13.45;6.57;;;;;;;;;;5031155;28;20257;-64
2023/05/02 11:29:03;;;;;;;11.95;6.63;;;;;;;;;;5030958;28;20105;-64
2023/05/02 11:31:28;;;;;;;13.50;6.90;;;;;;;;;;5030756;28;20021;-67
2023/05/02 11:33:57;;;;;;;6.13;3.20;;;;;;;;;;5030620;28;20127;-63
2023/05/02 11:36:29;;;;;;;7.57;3.13;;;;;;;;;;5029880;28;20029;-64
2023/05/02 11:38:54;;;;;;;11.80;3.15;;;;;;;;;;5030129;28;20022;-65
2023/05/02 11:41:20;;;;;;;8.52;3.70;;;;;;;;;;5030727;28;20024;-65
2023/05/02 11:43:45;;;;;;;7.88;4.13;;;;;;;;;;5030349;28;20468;-62
2023/05/02 11:46:11;;;;;;;8.13;4.00;;;;;;;;;;5029758;28;20521;-65
2023/05/02 11:48:36;;;;;;;7.72;4.00;;;;;;;;;;5030764;28;20022;-66
2023/05/02 11:51:03;;;;;;;9.85;4.80;;;;;;;;;;5029984;28;20021;-65
2023/05/02 11:53:28;;;;;;;9.73;5.10;;;;;;;;;;5029695;28;20018;-64
2023/05/02 11:56:03;;;;;;;13.15;6.53;;;;;;;;;;5029725;28;20018;-64
2023/05/02 11:58:31;;;;;;;12.15;6.10;;;;;;;;;;5021725;28;20063;-64
2023/05/02 12:00:56;;;;;;;10.38;5.72;;;;;;;;;;5030162;28;20018;-63
2023/05/02 12:03:22;;;;;;;12.02;6.10;;;;;;;;;;5029515;28;20368;-64
2023/05/02 12:05:47;;;;;;;9.35;5.65;;;;;;;;;;5040625;22;20025;-66
2023/05/02 12:08:31;;;;;;;10.07;5.95;;;;;;;;;;5000613;28;20030;-67
2023/05/02 12:10:56;;;;;;;10.50;5.82;;;;;;;;;;4989773;28;20553;-66
2023/05/02 12:13:22;;;;;;;12.80;5.72;;;;;;;;;;5005008;28;20014;-67
2023/05/02 12:15:49;;;;;;;11.07;5.78;;;;;;;;;;5009162;28;20109;-65
2023/05/02 12:18:14;;;;;;;13.27;6.47;;;;;;;;;;4988868;28;20101;-66
2023/05/02 12:20:40;;;;;;;11.63;6.22;;;;;;;;;;4989684;28;20097;-68
2023/05/02 12:23:09;;;;;;;9.68;5.80;;;;;;;;;;4993166;28;20371;-66
2023/05/02 12:25:34;;;;;;;;;;;;;;;;;;4998668;28;20026;-66
2023/05/02 12:28:00;;;;;;;9.25;5.65;;;;;;;;;;4994298;28;19972;-68
2023/05/02 12:30:26;;;;;;;12.90;5.22;;;;;;;;;;4990088;28;20030;-67
2023/05/02 12:32:55;;;;;;;13.52;5.30;;;;;;;;;;4989352;28;20028;-66
2023/05/02 12:35:21;;;;;;;14.00;5.60;;;;;;;;;;4988770;28;20026;-67
2023/05/02 12:37:47;;;;;;;6.38;4.50;;;;;;;;;;4989722;28;20026;-65
2023/05/02 12:40:16;;;;;;;10.73;5.95;;;;;;;;;;4998605;28;20100;-66
2023/05/02 12:42:41;;;;;;;9.27;4.90;;;;;;;;;;4993754;28;20445;-67
2023/05/02 12:45:15;;;;;;;9.52;5.45;;;;;;;;;;4989851;28;20029;-67
2023/05/02 12:47:45;;;;;;;9.18;5.10;;;;;;;;;;5002252;28;20097;-67
2023/05/02 12:50:10;;;;;;;10.38;6.47;;;;;;;;;;5000328;28;20025;-66
2023/05/02 12:52:44;;;;;;;9.55;5.90;;;;;;;;;;4995365;28;20018;-67
2023/05/02 12:55:19;;;;;;;9.32;5.68;;;;;;;;;;4997838;28;20459;-66
2023/05/02 12:57:45;;;;;;;10.20;4.85;;;;;;;;;;4981651;28;20027;-66
2023/05/02 13:00:11;;;;;;;8.00;4.63;;;;;;;;;;4988046;28;20118;-68
2023/05/02 13:02:36;;;;;;;8.32;3.95;;;;;;;;;;4989387;28;20030;-65
2023/05/02 13:05:01;;;;;;;7.22;4.70;;;;;;;;;;4988594;28;20543;-66
2023/05/02 13:07:26;;;;;;;8.07;4.50;;;;;;;;;;4988878;28;20038;-67
2023/05/02 13:09:52;;;;;;;8.90;4.43;;;;;;;;;;4990749;28;20038;-66
2023/05/02 13:12:17;;;;;;;6.28;4.15;;;;;;;;;;4989512;28;20028;-68
2023/05/02 13:14:43;;;;;;;8.88;4.45;;;;;;;;;;4989614;28;20081;-69
2023/05/02 13:17:08;;;;;;;16.27;5.07;;;;;;;;;;4986575;28;20019;-69
2023/05/02 13:19:33;;;;;;;7.97;3.78;;;;;;;;;;4989147;28;20101;-69
2023/05/02 13:21:59;;;;;;;8.77;4.07;;;;;;;;;;4995180;28;20022;-68
2023/05/02 13:24:24;;;;;;;8.65;4.40;;;;;;;;;;4995874;28;20134;-66
2023/05/02 13:26:50;;;;;;;9.15;4.30;;;;;;;;;;5000778;28;20030;-68
2023/05/02 13:29:15;;;;;;;13.07;3.50;;;;;;;;;;4989728;28;20495;-68
2023/05/02 13:31:40;;;;;;;8.05;3.90;;;;;;;;;;4989533;28;20106;-66
2023/05/02 13:34:05;;;;;;;16.40;4.50;;;;;;;;;;4989018;28;20107;-67
2023/05/02 13:36:31;;;;;;;10.18;4.55;;;;;;;;;;4988354;28;20040;-67
2023/05/02 13:38:56;;;;;;;7.47;3.97;;;;;;;;;;5000942;28;20022;-69
2023/05/02 13:41:23;;;;;;;10.20;4.28;;;;;;;;;;4995411;28;20014;-68
2023/05/02 13:43:48;;;;;;;12.35;4.15;;;;;;;;;;4998572;28;20524;-68
2023/05/02 13:46:14;;;;;;;9.48;4.28;;;;;;;;;;4985531;28;20072;-66
2023/05/02 13:48:39;;;;;;;13.10;4.15;;;;;;;;;;4992177;28;20645;-66
2023/05/02 13:51:04;;;;;;;11.68;4.05;;;;;;;;;;5003668;28;20014;-67
2023/05/02 13:53:30;;;;;;;10.23;4.10;;;;;;;;;;4995498;28;20163;-67
2023/05/02 13:55:55;;;;;;;10.65;4.60;;;;;;;;;;4987567;28;20416;-68
2023/05/02 13:58:20;;;;;;;13.45;5.30;;;;;;;;;;4990656;28;20030;-68
2023/05/02 14:00:46;;;;;;;14.63;4.25;;;;;;;;;;4992395;28;20101;-64
2023/05/02 14:03:12;;;;;;;11.25;4.50;;;;;;;;;;4991161;28;20042;-68
2023/05/02 14:05:42;;;;;;;16.20;4.75;;;;;;;;;;4988209;28;20130;-70
2023/05/02 14:08:07;;;;;;;16.30;3.97;;;;;;;;;;4987516;28;20045;-70
2023/05/02 14:10:32;;;;;;;15.85;5.40;;;;;;;;;;4992182;28;20026;-65
2023/05/02 14:12:58;;;;;;;14.95;5.38;;;;;;;;;;4989419;28;20057;-67
2023/05/02 14:15:23;;;;;;;10.40;4.53;;;;;;;;;;4990072;28;20032;-65
2023/05/02 14:17:48;;;;;;;14.05;4.40;;;;;;;;;;4979703;28;20025;-68
2023/05/02 14:20:14;;;;;;;11.10;4.63;;;;;;;;;;4991366;28;20065;-68
2023/05/02 14:22:39;;;;;;;9.98;4.45;;;;;;;;;;4985577;28;20105;-66
2023/05/02 14:25:05;;;;;;;14.50;4.28;;;;;;;;;;4990165;28;20117;-70
2023/05/02 14:27:30;;;;;;;8.23;3.90;;;;;;;;;;4992185;28;20042;-67
2023/05/02 14:29:55;;;;;;;9.63;3.72;;;;;;;;;;4992331;28;20068;-67